sensor_id;sensor_type;location;lat;lon;timestamp;P1;durP1;ratioP1;P2;durP2;ratioP2
37805;SDS011;25082;50.870;0.022;2022-09-30T00:01:43;6.82;;;3.60;;
37805;SDS011;25082;50.870;0.022;2022-09-30T00:04:17;9.10;;;4.13;;
37805;SDS011;25082;50.870;0.022;2022-09-30T00:06:48;6.68;;;3.72;;
37805;SDS011;25082;50.870;0.022;2022-09-30T00:09:14;7.03;;;3.78;;
37805;SDS011;25082;50.870;0.022;2022-09-30T00:11:41;5.53;;;3.50;;
37805;SDS011;25082;50.870;0.022;2022-09-30T00:14:07;6.47;;;3.60;;
37805;SDS011;25082;50.870;0.022;2022-09-30T00:16:39;4.75;;;3.28;;
37805;SDS011;25082;50.870;0.022;2022-09-30T00:19:05;6.95;;;3.55;;
37805;SDS011;25082;50.870;0.022;2022-09-30T00:21:31;7.25;;;3.95;;
37805;SDS011;25082;50.870;0.022;2022-09-30T00:23:59;6.07;;;3.55;;
37805;SDS011;25082;50.870;0.022;2022-09-30T00:26:26;10.70;;;3.63;;
37805;SDS011;25082;50.870;0.022;2022-09-30T00:28:53;6.75;;;3.15;;
37805;SDS011;25082;50.870;0.022;2022-09-30T00:31:23;7.85;;;3.67;;
37805;SDS011;25082;50.870;0.022;2022-09-30T00:33:51;7.10;;;3.25;;
37805;SDS011;25082;50.870;0.022;2022-09-30T00:39:02;7.20;;;4.25;;
37805;SDS011;25082;50.870;0.022;2022-09-30T00:41:29;7.22;;;4.20;;
37805;SDS011;25082;50.870;0.022;2022-09-30T00:43:55;7.53;;;3.97;;
37805;SDS011;25082;50.870;0.022;2022-09-30T00:46:32;7.07;;;4.30;;
37805;SDS011;25082;50.870;0.022;2022-09-30T00:49:05;7.13;;;4.47;;
37805;SDS011;25082;50.870;0.022;2022-09-30T00:51:39;7.25;;;4.20;;
37805;SDS011;25082;50.870;0.022;2022-09-30T00:54:09;9.20;;;4.57;;
37805;SDS011;25082;50.870;0.022;2022-09-30T00:56:41;8.95;;;4.50;;
37805;SDS011;25082;50.870;0.022;2022-09-30T00:59:19;7.30;;;4.32;;
37805;SDS011;25082;50.870;0.022;2022-09-30T01:01:50;7.28;;;4.55;;
37805;SDS011;25082;50.870;0.022;2022-09-30T01:04:18;7.57;;;4.97;;
37805;SDS011;25082;50.870;0.022;2022-09-30T01:06:46;6.50;;;4.63;;
37805;SDS011;25082;50.870;0.022;2022-09-30T01:09:13;10.05;;;4.88;;
37805;SDS011;25082;50.870;0.022;2022-09-30T01:11:39;8.10;;;4.63;;
37805;SDS011;25082;50.870;0.022;2022-09-30T01:14:07;8.80;;;4.18;;
37805;SDS011;25082;50.870;0.022;2022-09-30T01:22:36;8.35;;;4.97;;
37805;SDS011;25082;50.870;0.022;2022-09-30T01:25:24;7.75;;;4.80;;
37805;SDS011;25082;50.870;0.022;2022-09-30T01:40:04;8.13;;;4.43;;
37805;SDS011;25082;50.870;0.022;2022-09-30T01:42:39;9.27;;;4.93;;
37805;SDS011;25082;50.870;0.022;2022-09-30T01:45:42;8.73;;;4.78;;
37805;SDS011;25082;50.870;0.022;2022-09-30T01:56:00;6.90;;;4.65;;
37805;SDS011;25082;50.870;0.022;2022-09-30T02:01:09;8.55;;;4.97;;
37805;SDS011;25082;50.870;0.022;2022-09-30T02:03:45;8.18;;;5.10;;
37805;SDS011;25082;50.870;0.022;2022-09-30T02:06:15;6.80;;;4.38;;
37805;SDS011;25082;50.870;0.022;2022-09-30T02:08:55;9.38;;;4.57;;
37805;SDS011;25082;50.870;0.022;2022-09-30T02:11:31;8.57;;;4.97;;
37805;SDS011;25082;50.870;0.022;2022-09-30T02:17:09;10.57;;;4.65;;
37805;SDS011;25082;50.870;0.022;2022-09-30T02:22:15;8.68;;;4.90;;
37805;SDS011;25082;50.870;0.022;2022-09-30T02:24:44;7.80;;;4.80;;
37805;SDS011;25082;50.870;0.022;2022-09-30T02:27:16;10.05;;;4.82;;
37805;SDS011;25082;50.870;0.022;2022-09-30T02:29:48;8.98;;;5.03;;
37805;SDS011;25082;50.870;0.022;2022-09-30T02:32:23;9.52;;;4.93;;
37805;SDS011;25082;50.870;0.022;2022-09-30T02:35:12;9.30;;;5.35;;
37805;SDS011;25082;50.870;0.022;2022-09-30T02:37:44;9.90;;;5.30;;
37805;SDS011;25082;50.870;0.022;2022-09-30T02:40:19;9.90;;;5.88;;
37805;SDS011;25082;50.870;0.022;2022-09-30T02:42:46;9.38;;;5.32;;
37805;SDS011;25082;50.870;0.022;2022-09-30T02:45:14;10.13;;;5.00;;
37805;SDS011;25082;50.870;0.022;2022-09-30T02:47:48;8.27;;;4.63;;
37805;SDS011;25082;50.870;0.022;2022-09-30T02:50:31;10.18;;;5.75;;
37805;SDS011;25082;50.870;0.022;2022-09-30T02:56:18;10.80;;;5.97;;
37805;SDS011;25082;50.870;0.022;2022-09-30T02:59:05;7.57;;;4.85;;
37805;SDS011;25082;50.870;0.022;2022-09-30T03:01:31;8.70;;;4.75;;
37805;SDS011;25082;50.870;0.022;2022-09-30T03:04:02;8.18;;;5.00;;
37805;SDS011;25082;50.870;0.022;2022-09-30T03:06:31;9.68;;;5.15;;
37805;SDS011;25082;50.870;0.022;2022-09-30T03:08:58;9.70;;;4.75;;
37805;SDS011;25082;50.870;0.022;2022-09-30T03:11:25;8.38;;;5.43;;
37805;SDS011;25082;50.870;0.022;2022-09-30T03:30:47;10.75;;;5.43;;
37805;SDS011;25082;50.870;0.022;2022-09-30T03:33:31;8.00;;;4.93;;
37805;SDS011;25082;50.870;0.022;2022-09-30T03:36:29;9.85;;;4.90;;
37805;SDS011;25082;50.870;0.022;2022-09-30T03:39:05;8.73;;;4.70;;
37805;SDS011;25082;50.870;0.022;2022-09-30T03:41:53;8.20;;;5.03;;
37805;SDS011;25082;50.870;0.022;2022-09-30T03:44:29;7.22;;;4.47;;
37805;SDS011;25082;50.870;0.022;2022-09-30T03:47:07;8.93;;;5.15;;
37805;SDS011;25082;50.870;0.022;2022-09-30T03:49:39;8.63;;;4.65;;
37805;SDS011;25082;50.870;0.022;2022-09-30T03:52:11;6.38;;;4.13;;
37805;SDS011;25082;50.870;0.022;2022-09-30T03:55:11;8.38;;;4.70;;
37805;SDS011;25082;50.870;0.022;2022-09-30T03:57:32;9.13;;;4.80;;
37805;SDS011;25082;50.870;0.022;2022-09-30T03:59:58;7.43;;;4.05;;
37805;SDS011;25082;50.870;0.022;2022-09-30T04:02:25;10.07;;;4.78;;
37805;SDS011;25082;50.870;0.022;2022-09-30T04:04:51;8.18;;;5.07;;
37805;SDS011;25082;50.870;0.022;2022-09-30T04:07:17;8.77;;;4.50;;
37805;SDS011;25082;50.870;0.022;2022-09-30T04:09:43;6.70;;;4.28;;
37805;SDS011;25082;50.870;0.022;2022-09-30T04:12:09;7.05;;;4.30;;
37805;SDS011;25082;50.870;0.022;2022-09-30T04:14:35;6.28;;;4.35;;
37805;SDS011;25082;50.870;0.022;2022-09-30T04:17:01;7.65;;;4.03;;
37805;SDS011;25082;50.870;0.022;2022-09-30T04:19:28;4.72;;;3.50;;
37805;SDS011;25082;50.870;0.022;2022-09-30T04:21:54;6.82;;;3.67;;
37805;SDS011;25082;50.870;0.022;2022-09-30T04:24:20;8.30;;;4.47;;
37805;SDS011;25082;50.870;0.022;2022-09-30T04:26:47;7.50;;;4.32;;
37805;SDS011;25082;50.870;0.022;2022-09-30T04:29:13;9.65;;;4.75;;
37805;SDS011;25082;50.870;0.022;2022-09-30T04:31:39;7.07;;;3.97;;
37805;SDS011;25082;50.870;0.022;2022-09-30T04:34:04;5.68;;;3.67;;
37805;SDS011;25082;50.870;0.022;2022-09-30T04:36:30;7.32;;;4.43;;
37805;SDS011;25082;50.870;0.022;2022-09-30T04:38:56;9.80;;;4.60;;
37805;SDS011;25082;50.870;0.022;2022-09-30T04:41:22;7.55;;;4.30;;
37805;SDS011;25082;50.870;0.022;2022-09-30T04:43:49;8.23;;;4.47;;
37805;SDS011;25082;50.870;0.022;2022-09-30T04:46:15;8.48;;;4.07;;
37805;SDS011;25082;50.870;0.022;2022-09-30T04:48:42;6.93;;;4.03;;
37805;SDS011;25082;50.870;0.022;2022-09-30T04:51:13;6.90;;;3.85;;
37805;SDS011;25082;50.870;0.022;2022-09-30T04:53:40;6.80;;;3.95;;
37805;SDS011;25082;50.870;0.022;2022-09-30T04:56:06;6.03;;;4.10;;
37805;SDS011;25082;50.870;0.022;2022-09-30T04:58:32;5.72;;;3.83;;
37805;SDS011;25082;50.870;0.022;2022-09-30T05:01:00;8.07;;;4.07;;
37805;SDS011;25082;50.870;0.022;2022-09-30T05:03:29;5.88;;;3.78;;
37805;SDS011;25082;50.870;0.022;2022-09-30T05:05:55;6.15;;;3.85;;
37805;SDS011;25082;50.870;0.022;2022-09-30T05:08:21;7.10;;;4.78;;
37805;SDS011;25082;50.870;0.022;2022-09-30T05:10:54;7.35;;;5.25;;
37805;SDS011;25082;50.870;0.022;2022-09-30T05:13:25;8.50;;;4.00;;
37805;SDS011;25082;50.870;0.022;2022-09-30T05:15:54;8.00;;;4.10;;
37805;SDS011;25082;50.870;0.022;2022-09-30T05:18:20;5.20;;;3.78;;
37805;SDS011;25082;50.870;0.022;2022-09-30T05:20:49;6.95;;;4.05;;
37805;SDS011;25082;50.870;0.022;2022-09-30T05:23:17;5.80;;;3.90;;
37805;SDS011;25082;50.870;0.022;2022-09-30T05:25:43;6.68;;;4.20;;
37805;SDS011;25082;50.870;0.022;2022-09-30T05:28:09;5.63;;;4.43;;
37805;SDS011;25082;50.870;0.022;2022-09-30T05:30:35;5.10;;;4.15;;
37805;SDS011;25082;50.870;0.022;2022-09-30T05:33:01;10.10;;;4.93;;
37805;SDS011;25082;50.870;0.022;2022-09-30T05:35:27;8.40;;;4.18;;
37805;SDS011;25082;50.870;0.022;2022-09-30T05:37:52;6.85;;;4.18;;
37805;SDS011;25082;50.870;0.022;2022-09-30T05:40:18;7.05;;;4.80;;
37805;SDS011;25082;50.870;0.022;2022-09-30T05:42:44;7.60;;;4.63;;
37805;SDS011;25082;50.870;0.022;2022-09-30T05:45:11;7.80;;;4.47;;
37805;SDS011;25082;50.870;0.022;2022-09-30T05:47:37;5.40;;;3.42;;
37805;SDS011;25082;50.870;0.022;2022-09-30T05:50:04;5.85;;;4.20;;
37805;SDS011;25082;50.870;0.022;2022-09-30T05:52:30;7.18;;;4.35;;
37805;SDS011;25082;50.870;0.022;2022-09-30T05:54:56;6.38;;;4.25;;
37805;SDS011;25082;50.870;0.022;2022-09-30T05:57:25;7.80;;;4.13;;
37805;SDS011;25082;50.870;0.022;2022-09-30T05:59:53;8.93;;;4.60;;
37805;SDS011;25082;50.870;0.022;2022-09-30T06:02:19;8.93;;;4.60;;
37805;SDS011;25082;50.870;0.022;2022-09-30T06:04:45;7.63;;;4.00;;
37805;SDS011;25082;50.870;0.022;2022-09-30T06:07:10;7.40;;;4.15;;
37805;SDS011;25082;50.870;0.022;2022-09-30T06:09:37;4.82;;;3.85;;
37805;SDS011;25082;50.870;0.022;2022-09-30T06:12:03;8.05;;;4.25;;
37805;SDS011;25082;50.870;0.022;2022-09-30T06:14:30;6.15;;;4.00;;
37805;SDS011;25082;50.870;0.022;2022-09-30T06:16:57;6.72;;;4.47;;
37805;SDS011;25082;50.870;0.022;2022-09-30T06:19:24;6.80;;;4.40;;
37805;SDS011;25082;50.870;0.022;2022-09-30T06:21:53;6.68;;;4.00;;
37805;SDS011;25082;50.870;0.022;2022-09-30T06:24:18;7.22;;;4.32;;
37805;SDS011;25082;50.870;0.022;2022-09-30T06:26:44;8.27;;;4.28;;
37805;SDS011;25082;50.870;0.022;2022-09-30T06:29:10;6.20;;;4.10;;
37805;SDS011;25082;50.870;0.022;2022-09-30T06:31:36;7.22;;;4.38;;
37805;SDS011;25082;50.870;0.022;2022-09-30T06:34:02;8.95;;;4.28;;
37805;SDS011;25082;50.870;0.022;2022-09-30T06:36:27;6.53;;;4.28;;
37805;SDS011;25082;50.870;0.022;2022-09-30T06:38:53;8.50;;;4.00;;
37805;SDS011;25082;50.870;0.022;2022-09-30T06:41:19;8.52;;;4.50;;
37805;SDS011;25082;50.870;0.022;2022-09-30T06:43:48;6.22;;;3.95;;
37805;SDS011;25082;50.870;0.022;2022-09-30T06:46:14;5.93;;;4.20;;
37805;SDS011;25082;50.870;0.022;2022-09-30T06:48:39;7.68;;;4.22;;
37805;SDS011;25082;50.870;0.022;2022-09-30T06:51:05;8.45;;;4.63;;
37805;SDS011;25082;50.870;0.022;2022-09-30T06:53:35;8.10;;;4.15;;
37805;SDS011;25082;50.870;0.022;2022-09-30T06:56:01;6.53;;;4.18;;
37805;SDS011;25082;50.870;0.022;2022-09-30T06:58:27;6.65;;;3.85;;
37805;SDS011;25082;50.870;0.022;2022-09-30T07:00:57;5.57;;;3.83;;
37805;SDS011;25082;50.870;0.022;2022-09-30T07:03:30;8.50;;;4.80;;
37805;SDS011;25082;50.870;0.022;2022-09-30T07:05:58;7.35;;;4.55;;
37805;SDS011;25082;50.870;0.022;2022-09-30T07:08:25;7.35;;;4.05;;
37805;SDS011;25082;50.870;0.022;2022-09-30T07:10:59;6.22;;;3.95;;
37805;SDS011;25082;50.870;0.022;2022-09-30T07:13:26;7.38;;;4.05;;
37805;SDS011;25082;50.870;0.022;2022-09-30T07:15:52;5.72;;;3.90;;
37805;SDS011;25082;50.870;0.022;2022-09-30T07:18:20;12.65;;;5.15;;
37805;SDS011;25082;50.870;0.022;2022-09-30T07:20:47;9.32;;;4.93;;
37805;SDS011;25082;50.870;0.022;2022-09-30T07:23:17;6.22;;;4.70;;
37805;SDS011;25082;50.870;0.022;2022-09-30T07:25:50;8.75;;;4.82;;
37805;SDS011;25082;50.870;0.022;2022-09-30T07:28:18;6.45;;;4.10;;
37805;SDS011;25082;50.870;0.022;2022-09-30T07:30:45;6.75;;;3.85;;
37805;SDS011;25082;50.870;0.022;2022-09-30T07:33:11;8.23;;;5.00;;
37805;SDS011;25082;50.870;0.022;2022-09-30T07:35:53;7.97;;;4.35;;
37805;SDS011;25082;50.870;0.022;2022-09-30T07:38:20;10.07;;;5.13;;
37805;SDS011;25082;50.870;0.022;2022-09-30T07:43:22;6.25;;;4.10;;
37805;SDS011;25082;50.870;0.022;2022-09-30T07:45:49;7.15;;;4.90;;
37805;SDS011;25082;50.870;0.022;2022-09-30T07:48:15;9.38;;;4.53;;
37805;SDS011;25082;50.870;0.022;2022-09-30T07:51:00;7.05;;;4.40;;
37805;SDS011;25082;50.870;0.022;2022-09-30T07:53:26;7.50;;;4.18;;
37805;SDS011;25082;50.870;0.022;2022-09-30T07:55:52;8.00;;;4.72;;
37805;SDS011;25082;50.870;0.022;2022-09-30T07:58:17;7.75;;;4.82;;
37805;SDS011;25082;50.870;0.022;2022-09-30T08:00:45;7.82;;;4.60;;
37805;SDS011;25082;50.870;0.022;2022-09-30T08:03:14;8.15;;;4.55;;
37805;SDS011;25082;50.870;0.022;2022-09-30T08:05:40;12.45;;;4.00;;
37805;SDS011;25082;50.870;0.022;2022-09-30T08:08:12;8.55;;;4.50;;
37805;SDS011;25082;50.870;0.022;2022-09-30T08:10:39;8.77;;;4.10;;
37805;SDS011;25082;50.870;0.022;2022-09-30T08:13:05;7.53;;;3.95;;
37805;SDS011;25082;50.870;0.022;2022-09-30T08:15:31;7.63;;;3.88;;
37805;SDS011;25082;50.870;0.022;2022-09-30T08:17:57;9.10;;;3.78;;
37805;SDS011;25082;50.870;0.022;2022-09-30T08:20:23;8.10;;;4.10;;
37805;SDS011;25082;50.870;0.022;2022-09-30T08:22:55;7.90;;;4.30;;
37805;SDS011;25082;50.870;0.022;2022-09-30T08:25:21;6.53;;;4.00;;
37805;SDS011;25082;50.870;0.022;2022-09-30T08:27:48;9.48;;;4.72;;
37805;SDS011;25082;50.870;0.022;2022-09-30T08:30:14;8.07;;;4.20;;
37805;SDS011;25082;50.870;0.022;2022-09-30T08:32:39;7.05;;;4.20;;
37805;SDS011;25082;50.870;0.022;2022-09-30T08:35:05;7.72;;;4.20;;
37805;SDS011;25082;50.870;0.022;2022-09-30T08:37:32;10.43;;;3.97;;
37805;SDS011;25082;50.870;0.022;2022-09-30T08:39:57;6.00;;;3.40;;
37805;SDS011;25082;50.870;0.022;2022-09-30T08:48:19;5.35;;;3.53;;
37805;SDS011;25082;50.870;0.022;2022-09-30T08:53:35;8.73;;;3.60;;
37805;SDS011;25082;50.870;0.022;2022-09-30T08:56:05;6.68;;;3.53;;
37805;SDS011;25082;50.870;0.022;2022-09-30T08:58:33;6.32;;;3.50;;
37805;SDS011;25082;50.870;0.022;2022-09-30T09:01:23;5.68;;;3.17;;
37805;SDS011;25082;50.870;0.022;2022-09-30T09:03:55;8.38;;;3.42;;
37805;SDS011;25082;50.870;0.022;2022-09-30T09:11:34;7.20;;;3.15;;
37805;SDS011;25082;50.870;0.022;2022-09-30T09:19:43;3.42;;;2.50;;
37805;SDS011;25082;50.870;0.022;2022-09-30T09:22:16;3.65;;;2.53;;
37805;SDS011;25082;50.870;0.022;2022-09-30T09:24:43;6.53;;;2.35;;
37805;SDS011;25082;50.870;0.022;2022-09-30T09:27:23;7.07;;;2.53;;
37805;SDS011;25082;50.870;0.022;2022-09-30T09:29:57;11.05;;;3.40;;
37805;SDS011;25082;50.870;0.022;2022-09-30T09:32:30;7.68;;;2.50;;
37805;SDS011;25082;50.870;0.022;2022-09-30T09:35:00;9.95;;;3.75;;
37805;SDS011;25082;50.870;0.022;2022-09-30T09:37:42;4.53;;;2.22;;
37805;SDS011;25082;50.870;0.022;2022-09-30T09:43:17;3.65;;;2.00;;
37805;SDS011;25082;50.870;0.022;2022-09-30T09:48:32;5.10;;;2.30;;
37805;SDS011;25082;50.870;0.022;2022-09-30T09:51:05;4.35;;;1.98;;
37805;SDS011;25082;50.870;0.022;2022-09-30T09:53:55;8.07;;;2.67;;
37805;SDS011;25082;50.870;0.022;2022-09-30T09:56:26;26.77;;;3.88;;
37805;SDS011;25082;50.870;0.022;2022-09-30T10:01:31;11.35;;;2.72;;
37805;SDS011;25082;50.870;0.022;2022-09-30T10:06:41;4.88;;;2.58;;
37805;SDS011;25082;50.870;0.022;2022-09-30T10:09:20;7.68;;;2.13;;
37805;SDS011;25082;50.870;0.022;2022-09-30T10:14:34;7.07;;;2.28;;
37805;SDS011;25082;50.870;0.022;2022-09-30T10:17:00;5.43;;;2.00;;
37805;SDS011;25082;50.870;0.022;2022-09-30T10:19:29;3.70;;;1.83;;
37805;SDS011;25082;50.870;0.022;2022-09-30T10:24:32;3.05;;;2.10;;
37805;SDS011;25082;50.870;0.022;2022-09-30T10:26:58;2.85;;;1.58;;
37805;SDS011;25082;50.870;0.022;2022-09-30T10:29:34;3.58;;;2.08;;
37805;SDS011;25082;50.870;0.022;2022-09-30T10:32:00;2.97;;;1.70;;
37805;SDS011;25082;50.870;0.022;2022-09-30T10:37:00;4.07;;;1.90;;
37805;SDS011;25082;50.870;0.022;2022-09-30T10:39:33;4.32;;;1.75;;
37805;SDS011;25082;50.870;0.022;2022-09-30T10:42:05;4.38;;;1.88;;
37805;SDS011;25082;50.870;0.022;2022-09-30T10:45:40;4.03;;;1.98;;
37805;SDS011;25082;50.870;0.022;2022-09-30T10:48:01;5.30;;;1.70;;
37805;SDS011;25082;50.870;0.022;2022-09-30T10:50:30;3.42;;;1.88;;
37805;SDS011;25082;50.870;0.022;2022-09-30T10:55:43;3.47;;;1.73;;
37805;SDS011;25082;50.870;0.022;2022-09-30T10:58:23;3.40;;;1.92;;
37805;SDS011;25082;50.870;0.022;2022-09-30T11:00:53;3.92;;;1.50;;
37805;SDS011;25082;50.870;0.022;2022-09-30T11:03:42;3.75;;;1.30;;
37805;SDS011;25082;50.870;0.022;2022-09-30T11:06:11;3.92;;;1.52;;
37805;SDS011;25082;50.870;0.022;2022-09-30T11:08:52;3.15;;;1.38;;
37805;SDS011;25082;50.870;0.022;2022-09-30T11:11:27;2.08;;;1.20;;
37805;SDS011;25082;50.870;0.022;2022-09-30T11:14:21;3.00;;;1.60;;
37805;SDS011;25082;50.870;0.022;2022-09-30T11:25:13;2.50;;;1.05;;
37805;SDS011;25082;50.870;0.022;2022-09-30T11:30:19;3.55;;;1.55;;
37805;SDS011;25082;50.870;0.022;2022-09-30T11:33:17;2.03;;;1.13;;
37805;SDS011;25082;50.870;0.022;2022-09-30T11:36:22;2.58;;;1.10;;
37805;SDS011;25082;50.870;0.022;2022-09-30T11:42:00;2.65;;;1.25;;
37805;SDS011;25082;50.870;0.022;2022-09-30T11:44:43;5.90;;;1.42;;
37805;SDS011;25082;50.870;0.022;2022-09-30T11:47:19;2.30;;;1.20;;
37805;SDS011;25082;50.870;0.022;2022-09-30T11:50:03;2.45;;;1.02;;
37805;SDS011;25082;50.870;0.022;2022-09-30T11:58:38;11.18;;;1.90;;
37805;SDS011;25082;50.870;0.022;2022-09-30T12:01:21;11.90;;;1.70;;
37805;SDS011;25082;50.870;0.022;2022-09-30T12:09:47;12.35;;;2.13;;
37805;SDS011;25082;50.870;0.022;2022-09-30T12:12:17;9.52;;;2.00;;
37805;SDS011;25082;50.870;0.022;2022-09-30T12:15:03;9.38;;;2.42;;
37805;SDS011;25082;50.870;0.022;2022-09-30T12:17:42;7.18;;;2.13;;
37805;SDS011;25082;50.870;0.022;2022-09-30T12:22:40;26.58;;;8.77;;
37805;SDS011;25082;50.870;0.022;2022-09-30T12:25:19;35.80;;;10.85;;
37805;SDS011;25082;50.870;0.022;2022-09-30T12:30:25;37.25;;;10.52;;
37805;SDS011;25082;50.870;0.022;2022-09-30T12:41:46;17.20;;;5.55;;
37805;SDS011;25082;50.870;0.022;2022-09-30T12:49:49;15.90;;;5.90;;
37805;SDS011;25082;50.870;0.022;2022-09-30T12:52:19;26.13;;;6.78;;
37805;SDS011;25082;50.870;0.022;2022-09-30T12:54:56;20.73;;;7.13;;
37805;SDS011;25082;50.870;0.022;2022-09-30T12:57:27;19.48;;;6.82;;
37805;SDS011;25082;50.870;0.022;2022-09-30T13:00:00;17.05;;;6.18;;
37805;SDS011;25082;50.870;0.022;2022-09-30T13:02:37;12.65;;;5.22;;
37805;SDS011;25082;50.870;0.022;2022-09-30T13:23:38;20.27;;;4.68;;
37805;SDS011;25082;50.870;0.022;2022-09-30T13:28:48;11.60;;;3.85;;
37805;SDS011;25082;50.870;0.022;2022-09-30T13:33:46;9.32;;;3.88;;
37805;SDS011;25082;50.870;0.022;2022-09-30T13:36:37;11.98;;;4.15;;
37805;SDS011;25082;50.870;0.022;2022-09-30T13:41:42;10.65;;;3.63;;
37805;SDS011;25082;50.870;0.022;2022-09-30T13:44:15;8.77;;;3.38;;
37805;SDS011;25082;50.870;0.022;2022-09-30T13:46:47;8.95;;;3.45;;
37805;SDS011;25082;50.870;0.022;2022-09-30T13:52:41;8.70;;;3.28;;
37805;SDS011;25082;50.870;0.022;2022-09-30T13:55:14;9.00;;;3.47;;
37805;SDS011;25082;50.870;0.022;2022-09-30T14:00:36;6.57;;;2.75;;
37805;SDS011;25082;50.870;0.022;2022-09-30T14:04:08;8.25;;;2.85;;
37805;SDS011;25082;50.870;0.022;2022-09-30T14:19:59;5.45;;;2.97;;
37805;SDS011;25082;50.870;0.022;2022-09-30T14:22:36;8.63;;;2.53;;
37805;SDS011;25082;50.870;0.022;2022-09-30T14:25:02;5.30;;;2.53;;
37805;SDS011;25082;50.870;0.022;2022-09-30T14:28:12;6.85;;;2.45;;
37805;SDS011;25082;50.870;0.022;2022-09-30T14:30:22;6.30;;;3.13;;
37805;SDS011;25082;50.870;0.022;2022-09-30T14:35:23;8.63;;;2.50;;
37805;SDS011;25082;50.870;0.022;2022-09-30T14:37:53;3.13;;;2.00;;
37805;SDS011;25082;50.870;0.022;2022-09-30T14:40:33;4.82;;;1.90;;
37805;SDS011;25082;50.870;0.022;2022-09-30T14:43:04;10.27;;;2.47;;
37805;SDS011;25082;50.870;0.022;2022-09-30T14:45:35;7.00;;;2.53;;
37805;SDS011;25082;50.870;0.022;2022-09-30T14:48:04;9.82;;;3.33;;
37805;SDS011;25082;50.870;0.022;2022-09-30T14:51:05;10.00;;;2.45;;
37805;SDS011;25082;50.870;0.022;2022-09-30T14:53:40;6.32;;;2.67;;
37805;SDS011;25082;50.870;0.022;2022-09-30T14:56:17;12.48;;;2.90;;
37805;SDS011;25082;50.870;0.022;2022-09-30T14:58:48;12.47;;;2.63;;
37805;SDS011;25082;50.870;0.022;2022-09-30T15:01:17;8.00;;;2.10;;
37805;SDS011;25082;50.870;0.022;2022-09-30T15:03:47;8.52;;;2.30;;
37805;SDS011;25082;50.870;0.022;2022-09-30T15:08:47;6.35;;;2.22;;
37805;SDS011;25082;50.870;0.022;2022-09-30T15:11:18;7.07;;;1.98;;
37805;SDS011;25082;50.870;0.022;2022-09-30T15:13:47;7.20;;;2.20;;
37805;SDS011;25082;50.870;0.022;2022-09-30T15:16:23;7.07;;;1.90;;
37805;SDS011;25082;50.870;0.022;2022-09-30T15:18:50;5.63;;;1.77;;
37805;SDS011;25082;50.870;0.022;2022-09-30T15:21:18;6.22;;;1.92;;
37805;SDS011;25082;50.870;0.022;2022-09-30T15:23:49;7.78;;;1.83;;
37805;SDS011;25082;50.870;0.022;2022-09-30T15:26:18;3.20;;;1.95;;
37805;SDS011;25082;50.870;0.022;2022-09-30T15:28:46;10.88;;;2.13;;
37805;SDS011;25082;50.870;0.022;2022-09-30T15:31:17;9.25;;;2.25;;
37805;SDS011;25082;50.870;0.022;2022-09-30T15:37:02;8.55;;;2.05;;
37805;SDS011;25082;50.870;0.022;2022-09-30T15:39:31;6.35;;;1.70;;
37805;SDS011;25082;50.870;0.022;2022-09-30T15:42:35;6.93;;;2.13;;
37805;SDS011;25082;50.870;0.022;2022-09-30T15:48:03;5.35;;;1.92;;
37805;SDS011;25082;50.870;0.022;2022-09-30T15:50:38;4.97;;;2.30;;
37805;SDS011;25082;50.870;0.022;2022-09-30T15:53:23;4.22;;;1.83;;
37805;SDS011;25082;50.870;0.022;2022-09-30T15:55:51;5.20;;;1.73;;
37805;SDS011;25082;50.870;0.022;2022-09-30T16:03:51;6.25;;;1.60;;
37805;SDS011;25082;50.870;0.022;2022-09-30T16:06:23;4.82;;;1.75;;
37805;SDS011;25082;50.870;0.022;2022-09-30T16:09:00;5.05;;;2.05;;
37805;SDS011;25082;50.870;0.022;2022-09-30T16:11:36;4.13;;;1.70;;
37805;SDS011;25082;50.870;0.022;2022-09-30T16:14:07;6.60;;;1.80;;
37805;SDS011;25082;50.870;0.022;2022-09-30T16:16:54;4.53;;;1.80;;
37805;SDS011;25082;50.870;0.022;2022-09-30T16:19:22;5.00;;;1.48;;
37805;SDS011;25082;50.870;0.022;2022-09-30T16:21:50;3.05;;;1.60;;
37805;SDS011;25082;50.870;0.022;2022-09-30T16:26:47;4.85;;;1.63;;
37805;SDS011;25082;50.870;0.022;2022-09-30T16:29:14;7.47;;;2.05;;
37805;SDS011;25082;50.870;0.022;2022-09-30T16:31:41;6.13;;;1.52;;
37805;SDS011;25082;50.870;0.022;2022-09-30T16:36:47;5.97;;;1.80;;
37805;SDS011;25082;50.870;0.022;2022-09-30T16:39:13;5.32;;;1.73;;
37805;SDS011;25082;50.870;0.022;2022-09-30T16:41:40;7.78;;;2.00;;
37805;SDS011;25082;50.870;0.022;2022-09-30T16:44:07;10.88;;;1.90;;
37805;SDS011;25082;50.870;0.022;2022-09-30T16:46:33;13.05;;;2.22;;
37805;SDS011;25082;50.870;0.022;2022-09-30T16:49:21;10.98;;;2.10;;
37805;SDS011;25082;50.870;0.022;2022-09-30T16:51:45;8.65;;;2.08;;
37805;SDS011;25082;50.870;0.022;2022-09-30T16:54:11;6.53;;;1.80;;
37805;SDS011;25082;50.870;0.022;2022-09-30T16:56:37;7.45;;;2.05;;
37805;SDS011;25082;50.870;0.022;2022-09-30T16:59:03;9.45;;;2.30;;
37805;SDS011;25082;50.870;0.022;2022-09-30T17:01:37;11.18;;;2.10;;
37805;SDS011;25082;50.870;0.022;2022-09-30T17:04:03;8.48;;;2.25;;
37805;SDS011;25082;50.870;0.022;2022-09-30T17:06:30;9.68;;;2.25;;
37805;SDS011;25082;50.870;0.022;2022-09-30T17:08:56;18.15;;;2.53;;
37805;SDS011;25082;50.870;0.022;2022-09-30T17:11:24;14.55;;;2.72;;
37805;SDS011;25082;50.870;0.022;2022-09-30T17:13:52;19.10;;;4.03;;
37805;SDS011;25082;50.870;0.022;2022-09-30T17:16:17;20.25;;;4.28;;
37805;SDS011;25082;50.870;0.022;2022-09-30T17:18:43;20.70;;;4.43;;
37805;SDS011;25082;50.870;0.022;2022-09-30T17:21:09;17.67;;;5.38;;
37805;SDS011;25082;50.870;0.022;2022-09-30T17:23:35;22.27;;;4.38;;
37805;SDS011;25082;50.870;0.022;2022-09-30T17:26:04;16.92;;;3.78;;
37805;SDS011;25082;50.870;0.022;2022-09-30T17:28:30;12.88;;;4.88;;
37805;SDS011;25082;50.870;0.022;2022-09-30T17:30:58;18.38;;;3.90;;
37805;SDS011;25082;50.870;0.022;2022-09-30T17:33:24;17.17;;;3.90;;
37805;SDS011;25082;50.870;0.022;2022-09-30T17:35:55;19.35;;;4.30;;
37805;SDS011;25082;50.870;0.022;2022-09-30T17:38:25;17.70;;;4.13;;
37805;SDS011;25082;50.870;0.022;2022-09-30T17:40:51;13.90;;;3.20;;
37805;SDS011;25082;50.870;0.022;2022-09-30T17:43:35;17.65;;;3.92;;
37805;SDS011;25082;50.870;0.022;2022-09-30T17:46:01;7.65;;;2.90;;
37805;SDS011;25082;50.870;0.022;2022-09-30T17:48:27;11.27;;;3.50;;
37805;SDS011;25082;50.870;0.022;2022-09-30T17:50:53;14.52;;;3.60;;
37805;SDS011;25082;50.870;0.022;2022-09-30T17:53:19;17.13;;;3.95;;
37805;SDS011;25082;50.870;0.022;2022-09-30T17:55:46;10.93;;;3.08;;
37805;SDS011;25082;50.870;0.022;2022-09-30T17:58:14;14.02;;;3.60;;
37805;SDS011;25082;50.870;0.022;2022-09-30T18:00:41;13.73;;;3.45;;
37805;SDS011;25082;50.870;0.022;2022-09-30T18:03:07;8.90;;;3.42;;
37805;SDS011;25082;50.870;0.022;2022-09-30T18:05:34;10.02;;;3.17;;
37805;SDS011;25082;50.870;0.022;2022-09-30T18:08:00;11.15;;;3.38;;
37805;SDS011;25082;50.870;0.022;2022-09-30T18:10:26;10.55;;;3.13;;
37805;SDS011;25082;50.870;0.022;2022-09-30T18:12:52;11.98;;;3.72;;
37805;SDS011;25082;50.870;0.022;2022-09-30T18:15:19;9.68;;;2.75;;
37805;SDS011;25082;50.870;0.022;2022-09-30T18:17:46;17.83;;;3.83;;
37805;SDS011;25082;50.870;0.022;2022-09-30T18:20:13;13.68;;;3.42;;
37805;SDS011;25082;50.870;0.022;2022-09-30T18:22:39;13.20;;;2.78;;
37805;SDS011;25082;50.870;0.022;2022-09-30T18:25:05;8.20;;;2.45;;
37805;SDS011;25082;50.870;0.022;2022-09-30T18:27:44;8.13;;;2.70;;
37805;SDS011;25082;50.870;0.022;2022-09-30T18:30:10;9.38;;;3.28;;
37805;SDS011;25082;50.870;0.022;2022-09-30T18:32:37;7.43;;;2.90;;
37805;SDS011;25082;50.870;0.022;2022-09-30T18:35:03;6.35;;;2.45;;
37805;SDS011;25082;50.870;0.022;2022-09-30T18:37:34;7.70;;;2.22;;
37805;SDS011;25082;50.870;0.022;2022-09-30T18:40:00;7.38;;;2.35;;
37805;SDS011;25082;50.870;0.022;2022-09-30T18:42:26;8.75;;;3.15;;